sensor_id;sensor_type;location;lat;lon;timestamp;pressure;altitude;pressure_sealevel;temperature;humidity
37078;BME280;22989;55.998;37.212;2024-02-21T00:02:08;42412.53;;;-145.39;54.52
37078;BME280;22989;55.998;37.212;2024-02-21T00:04:33;42426.19;;;-145.39;54.51
37078;BME280;22989;55.998;37.212;2024-02-21T00:06:59;42451.56;;;-145.39;54.33
37078;BME280;22989;55.998;37.212;2024-02-21T00:09:24;42439.84;;;-145.39;54.44
37078;BME280;22989;55.998;37.212;2024-02-21T00:11:50;42461.34;;;-145.39;54.51
37078;BME280;22989;55.998;37.212;2024-02-21T00:14:15;42400.81;;;-145.39;54.33
37078;BME280;22989;55.998;37.212;2024-02-21T00:16:41;42447.66;;;-145.39;54.45
37078;BME280;22989;55.998;37.212;2024-02-21T00:19:07;42441.81;;;-145.39;54.27
37078;BME280;22989;55.998;37.212;2024-02-21T00:21:32;42412.53;;;-145.39;54.40
37078;BME280;22989;55.998;37.212;2024-02-21T00:23:58;42418.38;;;-145.39;54.70
37078;BME280;22989;55.998;37.212;2024-02-21T00:26:24;42439.84;;;-145.39;54.38
37078;BME280;22989;55.998;37.212;2024-02-21T00:28:51;42422.28;;;-145.39;54.39
37078;BME280;22989;55.998;37.212;2024-02-21T00:31:16;42414.47;;;-145.39;54.27
37078;BME280;22989;55.998;37.212;2024-02-21T00:33:42;42404.72;;;-145.39;54.27
37078;BME280;22989;55.998;37.212;2024-02-21T00:36:07;42457.44;;;-145.39;54.49
37078;BME280;22989;55.998;37.212;2024-02-21T00:38:33;42402.75;;;-145.39;54.59
37078;BME280;22989;55.998;37.212;2024-02-21T00:40:58;42408.63;;;-145.39;54.48
37078;BME280;22989;55.998;37.212;2024-02-21T00:43:24;42379.31;;;-145.39;54.29
37078;BME280;22989;55.998;37.212;2024-02-21T00:45:50;42420.34;;;-145.39;54.29
37078;BME280;22989;55.998;37.212;2024-02-21T00:48:16;42434.00;;;-145.39;54.47
37078;BME280;22989;55.998;37.212;2024-02-21T00:50:41;42437.91;;;-145.39;54.36
37078;BME280;22989;55.998;37.212;2024-02-21T00:53:07;42420.34;;;-145.39;54.49
37078;BME280;22989;55.998;37.212;2024-02-21T00:55:32;42453.53;;;-145.39;54.17
37078;BME280;22989;55.998;37.212;2024-02-21T00:57:58;42457.44;;;-145.39;54.34
37078;BME280;22989;55.998;37.212;2024-02-21T01:00:23;42394.94;;;-145.39;54.34
37078;BME280;22989;55.998;37.212;2024-02-21T01:02:49;42414.47;;;-145.39;54.56
37078;BME280;22989;55.998;37.212;2024-02-21T01:05:14;42439.84;;;-145.39;54.42
37078;BME280;22989;55.998;37.212;2024-02-21T01:07:40;42420.34;;;-145.39;54.18
37078;BME280;22989;55.998;37.212;2024-02-21T01:10:06;42441.81;;;-145.39;54.22
37078;BME280;22989;55.998;37.212;2024-02-21T01:12:32;42424.22;;;-145.39;54.42
37078;BME280;22989;55.998;37.212;2024-02-21T01:14:57;42441.81;;;-145.39;54.51
37078;BME280;22989;55.998;37.212;2024-02-21T01:17:23;42416.44;;;-145.39;54.29
37078;BME280;22989;55.998;37.212;2024-02-21T01:19:48;42459.38;;;-145.39;54.34
37078;BME280;22989;55.998;37.212;2024-02-21T01:22:14;42469.16;;;-145.39;54.46
37078;BME280;22989;55.998;37.212;2024-02-21T01:24:41;42471.09;;;-145.39;54.44
37078;BME280;22989;55.998;37.212;2024-02-21T01:27:06;42451.56;;;-145.39;54.42
37078;BME280;22989;55.998;37.212;2024-02-21T01:29:32;42478.91;;;-145.39;54.63
37078;BME280;22989;55.998;37.212;2024-02-21T01:31:57;42482.81;;;-145.39;54.53
37078;BME280;22989;55.998;37.212;2024-02-21T01:34:23;42486.72;;;-145.39;54.40
37078;BME280;22989;55.998;37.212;2024-02-21T01:36:48;42471.09;;;-145.39;54.54
37078;BME280;22989;55.998;37.212;2024-02-21T01:39:14;42463.28;;;-145.39;54.32
37078;BME280;22989;55.998;37.212;2024-02-21T01:41:39;42471.09;;;-145.39;54.47
37078;BME280;22989;55.998;37.212;2024-02-21T01:44:05;42437.91;;;-145.39;54.47
37078;BME280;22989;55.998;37.212;2024-02-21T01:46:30;42459.38;;;-145.39;54.54
37078;BME280;22989;55.998;37.212;2024-02-21T01:48:57;42457.44;;;-145.39;54.54
37078;BME280;22989;55.998;37.212;2024-02-21T01:51:23;42430.09;;;-145.39;54.44
37078;BME280;22989;55.998;37.212;2024-02-21T01:53:50;42424.22;;;-145.39;54.37
37078;BME280;22989;55.998;37.212;2024-02-21T01:56:16;42455.47;;;-145.39;54.37
37078;BME280;22989;55.998;37.212;2024-02-21T01:58:42;42434.00;;;-145.39;54.65
37078;BME280;22989;55.998;37.212;2024-02-21T02:01:09;42445.72;;;-145.39;54.51
37078;BME280;22989;55.998;37.212;2024-02-21T02:03:35;42435.94;;;-145.39;54.44
37078;BME280;22989;55.998;37.212;2024-02-21T02:06:00;42428.13;;;-145.39;54.34
37078;BME280;22989;55.998;37.212;2024-02-21T02:08:26;42410.56;;;-145.39;54.49
37078;BME280;22989;55.998;37.212;2024-02-21T02:10:52;42393.00;;;-145.39;54.53
37078;BME280;22989;55.998;37.212;2024-02-21T02:13:17;42426.19;;;-145.39;54.35
37078;BME280;22989;55.998;37.212;2024-02-21T02:15:45;42432.03;;;-145.39;54.27
37078;BME280;22989;55.998;37.212;2024-02-21T02:18:12;42416.44;;;-145.39;54.41
37078;BME280;22989;55.998;37.212;2024-02-21T02:20:39;42435.94;;;-145.39;54.52
37078;BME280;22989;55.998;37.212;2024-02-21T02:23:10;42389.09;;;-145.39;54.49
37078;BME280;22989;55.998;37.212;2024-02-21T02:25:36;42428.13;;;-145.39;54.29
37078;BME280;22989;55.998;37.212;2024-02-21T02:28:08;42398.84;;;-145.39;54.37
37078;BME280;22989;55.998;37.212;2024-02-21T02:30:35;42414.47;;;-145.39;54.42
37078;BME280;22989;55.998;37.212;2024-02-21T02:33:05;42410.56;;;-145.39;54.29
37078;BME280;22989;55.998;37.212;2024-02-21T02:35:31;42400.81;;;-145.39;54.27
37078;BME280;22989;55.998;37.212;2024-02-21T02:37:57;42383.22;;;-145.39;54.29
37078;BME280;22989;55.998;37.212;2024-02-21T02:40:23;42406.66;;;-145.39;54.16
37078;BME280;22989;55.998;37.212;2024-02-21T02:42:49;42398.84;;;-145.39;54.29
37078;BME280;22989;55.998;37.212;2024-02-21T02:45:18;42416.44;;;-145.39;54.15
37078;BME280;22989;55.998;37.212;2024-02-21T02:47:46;42389.09;;;-145.39;54.28
37078;BME280;22989;55.998;37.212;2024-02-21T02:50:12;42340.28;;;-145.39;54.27
37078;BME280;22989;55.998;37.212;2024-02-21T02:52:38;42393.00;;;-145.39;54.44
37078;BME280;22989;55.998;37.212;2024-02-21T02:55:04;42404.72;;;-145.39;54.17
37078;BME280;22989;55.998;37.212;2024-02-21T02:57:30;42381.28;;;-145.39;54.12
37078;BME280;22989;55.998;37.212;2024-02-21T02:59:56;42316.84;;;-145.39;54.34
37078;BME280;22989;55.998;37.212;2024-02-21T03:02:21;42355.91;;;-145.39;54.25
37078;BME280;22989;55.998;37.212;2024-02-21T03:04:47;42348.09;;;-145.39;54.37
37078;BME280;22989;55.998;37.212;2024-02-21T03:07:14;42350.03;;;-145.39;54.28
37078;BME280;22989;55.998;37.212;2024-02-21T03:09:40;42361.75;;;-145.39;54.19
37078;BME280;22989;55.998;37.212;2024-02-21T03:12:08;42342.22;;;-145.39;54.20
37078;BME280;22989;55.998;37.212;2024-02-21T03:14:34;42369.56;;;-145.39;54.10
37078;BME280;22989;55.998;37.212;2024-02-21T03:17:00;42363.72;;;-145.39;54.31
37078;BME280;22989;55.998;37.212;2024-02-21T03:19:26;42367.63;;;-145.39;54.06
37078;BME280;22989;55.998;37.212;2024-02-21T03:21:52;42363.72;;;-145.39;54.26
37078;BME280;22989;55.998;37.212;2024-02-21T03:24:21;42322.69;;;-145.39;54.06
37078;BME280;22989;55.998;37.212;2024-02-21T03:26:47;42367.63;;;-145.39;53.94
37078;BME280;22989;55.998;37.212;2024-02-21T03:29:15;42318.81;;;-145.39;54.15
37078;BME280;22989;55.998;37.212;2024-02-21T03:31:41;42316.84;;;-145.39;54.03
37078;BME280;22989;55.998;37.212;2024-02-21T03:34:06;42352.00;;;-145.39;54.17
37078;BME280;22989;55.998;37.212;2024-02-21T03:36:32;42342.22;;;-145.39;54.03
37078;BME280;22989;55.998;37.212;2024-02-21T03:38:58;42309.03;;;-145.39;54.10
37078;BME280;22989;55.998;37.212;2024-02-21T03:41:23;42318.81;;;-145.39;53.87
37078;BME280;22989;55.998;37.212;2024-02-21T03:43:49;42338.31;;;-145.39;54.08
37078;BME280;22989;55.998;37.212;2024-02-21T03:46:15;42324.66;;;-145.39;54.03
37078;BME280;22989;55.998;37.212;2024-02-21T03:48:40;42303.19;;;-145.39;53.83
37078;BME280;22989;55.998;37.212;2024-02-21T03:51:06;42355.91;;;-145.39;54.00
37078;BME280;22989;55.998;37.212;2024-02-21T03:53:32;42369.56;;;-145.39;53.88
37078;BME280;22989;55.998;37.212;2024-02-21T03:55:57;42346.13;;;-145.39;54.10
37078;BME280;22989;55.998;37.212;2024-02-21T03:58:28;42332.47;;;-145.39;53.75
37078;BME280;22989;55.998;37.212;2024-02-21T04:00:53;42350.03;;;-145.39;53.94
37078;BME280;22989;55.998;37.212;2024-02-21T04:03:19;42322.69;;;-145.39;54.00
37078;BME280;22989;55.998;37.212;2024-02-21T04:05:45;42305.13;;;-145.39;53.71
37078;BME280;22989;55.998;37.212;2024-02-21T04:08:11;42334.41;;;-145.39;53.88
37078;BME280;22989;55.998;37.212;2024-02-21T04:10:36;42311.00;;;-145.39;54.05
37078;BME280;22989;55.998;37.212;2024-02-21T04:13:03;42334.41;;;-145.39;53.73
37078;BME280;22989;55.998;37.212;2024-02-21T04:15:28;42309.03;;;-145.39;53.77
37078;BME280;22989;55.998;37.212;2024-02-21T04:17:54;42350.03;;;-145.39;53.85
37078;BME280;22989;55.998;37.212;2024-02-21T04:20:20;42408.63;;;-145.39;53.76
37078;BME280;22989;55.998;37.212;2024-02-21T04:22:45;42461.34;;;-145.39;53.83
37078;BME280;22989;55.998;37.212;2024-02-21T04:25:11;42558.97;;;-145.39;53.75
37078;BME280;22989;55.998;37.212;2024-02-21T04:27:38;42584.34;;;-145.39;53.78
37078;BME280;22989;55.998;37.212;2024-02-21T04:30:04;42678.06;;;-145.39;53.83
37078;BME280;22989;55.998;37.212;2024-02-21T04:32:30;42822.56;;;-145.39;53.72
37078;BME280;22989;55.998;37.212;2024-02-21T04:34:56;42890.91;;;-145.39;53.58
37078;BME280;22989;55.998;37.212;2024-02-21T04:37:21;42959.28;;;-145.39;53.83
37078;BME280;22989;55.998;37.212;2024-02-21T04:39:48;43017.84;;;-145.39;53.59
37078;BME280;22989;55.998;37.212;2024-02-21T04:42:14;43082.28;;;-145.39;53.58
37078;BME280;22989;55.998;37.212;2024-02-21T04:44:40;43187.75;;;-145.39;53.76
37078;BME280;22989;55.998;37.212;2024-02-21T04:47:05;43232.66;;;-145.39;53.54
37078;BME280;22989;55.998;37.212;2024-02-21T04:49:32;43306.88;;;-145.39;53.64
37078;BME280;22989;55.998;37.212;2024-02-21T04:51:57;43340.09;;;-145.39;53.72
37078;BME280;22989;55.998;37.212;2024-02-21T04:54:23;43422.09;;;-145.39;53.55
37078;BME280;22989;55.998;37.212;2024-02-21T04:56:48;43525.63;;;-145.39;53.78
37078;BME280;22989;55.998;37.212;2024-02-21T04:59:14;43552.97;;;-145.39;53.75
37078;BME280;22989;55.998;37.212;2024-02-21T05:01:40;43631.09;;;-145.39;53.66
37078;BME280;22989;55.998;37.212;2024-02-21T05:04:05;43691.63;;;-145.39;53.43
37078;BME280;22989;55.998;37.212;2024-02-21T05:06:31;43736.56;;;-145.39;53.54
37078;BME280;22989;55.998;37.212;2024-02-21T05:08:57;43838.13;;;-145.39;53.52
37078;BME280;22989;55.998;37.212;2024-02-21T05:11:23;43853.75;;;-145.39;53.71
37078;BME280;22989;55.998;37.212;2024-02-21T05:13:50;43939.69;;;-145.39;53.70
37078;BME280;22989;55.998;37.212;2024-02-21T05:16:16;43927.97;;;-145.39;53.58
37078;BME280;22989;55.998;37.212;2024-02-21T05:18:41;43978.75;;;-145.39;53.59
37078;BME280;22989;55.998;37.212;2024-02-21T05:21:08;44084.25;;;-145.39;53.68
37078;BME280;22989;55.998;37.212;2024-02-21T05:23:34;44103.78;;;-145.39;53.54
37078;BME280;22989;55.998;37.212;2024-02-21T05:25:59;44099.88;;;-145.39;53.65
37078;BME280;22989;55.998;37.212;2024-02-21T05:28:25;44092.06;;;-145.39;53.73
37078;BME280;22989;55.998;37.212;2024-02-21T05:30:50;44127.22;;;-145.39;53.68
37078;BME280;22989;55.998;37.212;2024-02-21T05:33:16;44185.81;;;-145.39;53.42
37078;BME280;22989;55.998;37.212;2024-02-21T05:35:47;44162.38;;;-145.39;53.73
37078;BME280;22989;55.998;37.212;2024-02-21T05:38:14;44187.78;;;-145.39;53.64
37078;BME280;22989;55.998;37.212;2024-02-21T05:40:40;44197.53;;;-145.39;53.69
37078;BME280;22989;55.998;37.212;2024-02-21T05:43:07;44220.97;;;-145.39;53.70
37078;BME280;22989;55.998;37.212;2024-02-21T05:45:32;44304.97;;;-145.39;53.60
37078;BME280;22989;55.998;37.212;2024-02-21T05:47:58;44265.91;;;-145.39;53.54
37078;BME280;22989;55.998;37.212;2024-02-21T05:50:24;44267.88;;;-145.39;53.42
37078;BME280;22989;55.998;37.212;2024-02-21T05:52:53;44295.22;;;-145.39;53.52
37078;BME280;22989;55.998;37.212;2024-02-21T05:55:19;44371.41;;;-145.39;53.54
37078;BME280;22989;55.998;37.212;2024-02-21T05:57:45;44377.25;;;-145.39;53.65
37078;BME280;22989;55.998;37.212;2024-02-21T06:00:11;44396.78;;;-145.39;53.52
37078;BME280;22989;55.998;37.212;2024-02-21T06:02:40;44430.00;;;-145.39;53.37
37078;BME280;22989;55.998;37.212;2024-02-21T06:05:06;44437.81;;;-145.39;53.38
37078;BME280;22989;55.998;37.212;2024-02-21T06:07:33;44412.44;;;-145.39;53.29
37078;BME280;22989;55.998;37.212;2024-02-21T06:09:59;44459.31;;;-145.39;53.05
37078;BME280;22989;55.998;37.212;2024-02-21T06:12:25;44398.75;;;-145.39;53.24
37078;BME280;22989;55.998;37.212;2024-02-21T06:14:50;44435.88;;;-145.39;53.35
37078;BME280;22989;55.998;37.212;2024-02-21T06:17:16;44484.72;;;-145.39;53.09
37078;BME280;22989;55.998;37.212;2024-02-21T06:19:43;44482.75;;;-145.39;53.10
37078;BME280;22989;55.998;37.212;2024-02-21T06:22:08;44486.66;;;-145.39;52.98
37078;BME280;22989;55.998;37.212;2024-02-21T06:24:35;44471.03;;;-145.39;53.03
37078;BME280;22989;55.998;37.212;2024-02-21T06:27:02;44422.19;;;-145.39;53.12
37078;BME280;22989;55.998;37.212;2024-02-21T06:29:27;44455.41;;;-145.39;53.04
37078;BME280;22989;55.998;37.212;2024-02-21T06:31:53;44486.66;;;-145.39;52.67
37078;BME280;22989;55.998;37.212;2024-02-21T06:34:18;44471.03;;;-145.39;52.78
37078;BME280;22989;55.998;37.212;2024-02-21T06:36:45;44494.47;;;-145.39;52.71
37078;BME280;22989;55.998;37.212;2024-02-21T06:39:10;44502.28;;;-145.39;52.78
37078;BME280;22989;55.998;37.212;2024-02-21T06:41:37;44482.75;;;-145.39;52.59
37078;BME280;22989;55.998;37.212;2024-02-21T06:44:03;44449.53;;;-145.39;52.58
37078;BME280;22989;55.998;37.212;2024-02-21T06:46:29;44467.13;;;-145.39;52.61
37078;BME280;22989;55.998;37.212;2024-02-21T06:48:55;44469.06;;;-145.39;52.51
37078;BME280;22989;55.998;37.212;2024-02-21T06:51:24;44512.06;;;-145.39;52.37
37078;BME280;22989;55.998;37.212;2024-02-21T06:53:53;44517.91;;;-145.39;52.39
37078;BME280;22989;55.998;37.212;2024-02-21T06:56:18;44521.81;;;-145.39;52.31
37078;BME280;22989;55.998;37.212;2024-02-21T06:58:44;44539.41;;;-145.39;52.13
37078;BME280;22989;55.998;37.212;2024-02-21T07:01:10;44545.25;;;-145.39;51.90
37078;BME280;22989;55.998;37.212;2024-02-21T07:03:36;44531.59;;;-145.39;51.85
37078;BME280;22989;55.998;37.212;2024-02-21T07:06:02;44553.09;;;-145.39;51.73
37078;BME280;22989;55.998;37.212;2024-02-21T07:08:27;44535.50;;;-145.39;51.95
37078;BME280;22989;55.998;37.212;2024-02-21T07:10:53;44570.66;;;-145.39;51.86
37078;BME280;22989;55.998;37.212;2024-02-21T07:13:18;44560.91;;;-145.39;51.68
37078;BME280;22989;55.998;37.212;2024-02-21T07:15:44;44498.38;;;-145.39;51.42
37078;BME280;22989;55.998;37.212;2024-02-21T07:18:09;44455.41;;;-145.39;51.46
37078;BME280;22989;55.998;37.212;2024-02-21T07:20:35;44508.16;;;-145.39;51.00
37078;BME280;22989;55.998;37.212;2024-02-21T07:23:03;44472.97;;;-145.39;51.07
37078;BME280;22989;55.998;37.212;2024-02-21T07:25:29;44469.06;;;-145.39;51.05
37078;BME280;22989;55.998;37.212;2024-02-21T07:27:55;44437.81;;;-145.39;51.12
37078;BME280;22989;55.998;37.212;2024-02-21T07:30:21;44488.63;;;-145.39;50.78
37078;BME280;22989;55.998;37.212;2024-02-21T07:32:49;44494.47;;;-145.39;50.99
37078;BME280;22989;55.998;37.212;2024-02-21T07:35:15;44506.19;;;-145.39;50.57
37078;BME280;22989;55.998;37.212;2024-02-21T07:37:41;44576.53;;;-145.39;50.69
37078;BME280;22989;55.998;37.212;2024-02-21T07:40:12;44510.09;;;-145.39;50.68
37078;BME280;22989;55.998;37.212;2024-02-21T07:42:38;44449.53;;;-145.39;50.48
37078;BME280;22989;55.998;37.212;2024-02-21T07:45:04;44449.53;;;-145.39;50.24
37078;BME280;22989;55.998;37.212;2024-02-21T07:47:29;44514.00;;;-145.39;49.70
37078;BME280;22989;55.998;37.212;2024-02-21T07:49:55;44525.72;;;-145.39;50.24
37078;BME280;22989;55.998;37.212;2024-02-21T07:52:20;44549.19;;;-145.39;50.11
37078;BME280;22989;55.998;37.212;2024-02-21T07:54:46;44490.56;;;-145.39;50.24
37078;BME280;22989;55.998;37.212;2024-02-21T07:57:11;44500.34;;;-145.39;50.18
37078;BME280;22989;55.998;37.212;2024-02-21T07:59:37;44541.34;;;-145.39;49.72
37078;BME280;22989;55.998;37.212;2024-02-21T08:02:02;44514.00;;;-145.39;49.43
37078;BME280;22989;55.998;37.212;2024-02-21T08:04:32;44547.22;;;-145.39;49.49
37078;BME280;22989;55.998;37.212;2024-02-21T08:06:57;44635.13;;;-145.39;49.01
37078;BME280;22989;55.998;37.212;2024-02-21T08:09:26;44514.00;;;-145.39;49.14
37078;BME280;22989;55.998;37.212;2024-02-21T08:11:52;44504.25;;;-145.39;49.20
37078;BME280;22989;55.998;37.212;2024-02-21T08:14:17;44441.72;;;-145.39;49.07
37078;BME280;22989;55.998;37.212;2024-02-21T08:16:43;44431.97;;;-145.39;48.82
37078;BME280;22989;55.998;37.212;2024-02-21T08:19:10;44306.94;;;-145.39;48.60
37078;BME280;22989;55.998;37.212;2024-02-21T08:21:36;44472.97;;;-145.39;48.39
37078;BME280;22989;55.998;37.212;2024-02-21T08:24:01;44488.63;;;-145.39;47.71
37078;BME280;22989;55.998;37.212;2024-02-21T08:26:27;44449.53;;;-145.39;47.97
37078;BME280;22989;55.998;37.212;2024-02-21T08:28:56;44435.88;;;-145.39;48.16
37078;BME280;22989;55.998;37.212;2024-02-21T08:31:24;44465.16;;;-145.39;48.17
37078;BME280;22989;55.998;37.212;2024-02-21T08:33:53;44297.16;;;-145.39;47.91
37078;BME280;22989;55.998;37.212;2024-02-21T08:36:19;44439.78;;;-145.39;48.01
37078;BME280;22989;55.998;37.212;2024-02-21T08:38:45;44457.34;;;-145.39;48.23
37078;BME280;22989;55.998;37.212;2024-02-21T08:41:11;44424.16;;;-145.39;47.69
37078;BME280;22989;55.998;37.212;2024-02-21T08:43:37;44422.19;;;-145.39;47.84
37078;BME280;22989;55.998;37.212;2024-02-21T08:46:04;44303.03;;;-145.39;47.84
37078;BME280;22989;55.998;37.212;2024-02-21T08:48:30;44398.75;;;-145.39;47.84
37078;BME280;22989;55.998;37.212;2024-02-21T08:50:55;44392.88;;;-145.39;47.94
37078;BME280;22989;55.998;37.212;2024-02-21T08:53:21;44445.63;;;-145.39;47.91
37078;BME280;22989;55.998;37.212;2024-02-21T08:55:47;44449.53;;;-145.39;47.79
37078;BME280;22989;55.998;37.212;2024-02-21T08:58:12;44408.50;;;-145.39;47.83
37078;BME280;22989;55.998;37.212;2024-02-21T09:00:39;44420.25;;;-145.39;47.95
37078;BME280;22989;55.998;37.212;2024-02-21T09:03:05;44390.94;;;-145.39;47.96
37078;BME280;22989;55.998;37.212;2024-02-21T09:05:30;44347.97;;;-145.39;47.93
37078;BME280;22989;55.998;37.212;2024-02-21T09:07:56;44246.38;;;-145.39;47.82
37078;BME280;22989;55.998;37.212;2024-02-21T09:10:21;44281.53;;;-145.39;47.84
37078;BME280;22989;55.998;37.212;2024-02-21T09:12:47;44371.41;;;-145.39;47.62
37078;BME280;22989;55.998;37.212;2024-02-21T09:15:13;44455.41;;;-145.39;47.69
37078;BME280;22989;55.998;37.212;2024-02-21T09:17:38;44500.34;;;-145.39;47.74
37078;BME280;22989;55.998;37.212;2024-02-21T09:20:05;44506.19;;;-145.39;47.67
37078;BME280;22989;55.998;37.212;2024-02-21T09:22:31;44478.84;;;-145.39;47.96
37078;BME280;22989;55.998;37.212;2024-02-21T09:25:00;44439.78;;;-145.39;48.00
37078;BME280;22989;55.998;37.212;2024-02-21T09:27:25;44441.72;;;-145.39;47.54
37078;BME280;22989;55.998;37.212;2024-02-21T09:29:51;44428.06;;;-145.39;47.58
37078;BME280;22989;55.998;37.212;2024-02-21T09:32:18;44390.94;;;-145.39;47.63
37078;BME280;22989;55.998;37.212;2024-02-21T09:34:44;44435.88;;;-145.39;47.35
37078;BME280;22989;55.998;37.212;2024-02-21T09:37:11;44400.69;;;-145.39;47.06
37078;BME280;22989;55.998;37.212;2024-02-21T09:39:36;44418.28;;;-145.39;46.98
37078;BME280;22989;55.998;37.212;2024-02-21T09:42:11;44385.06;;;-145.39;46.38
37078;BME280;22989;55.998;37.212;2024-02-21T09:44:37;44414.38;;;-145.39;46.06
37078;BME280;22989;55.998;37.212;2024-02-21T09:47:22;44416.34;;;-145.39;46.19
37078;BME280;22989;55.998;37.212;2024-02-21T09:49:49;44420.25;;;-145.39;46.04
37078;BME280;22989;55.998;37.212;2024-02-21T09:52:18;44416.34;;;-145.39;46.30
37078;BME280;22989;55.998;37.212;2024-02-21T09:54:44;44447.59;;;-145.39;46.21
37078;BME280;22989;55.998;37.212;2024-02-21T09:57:10;44418.28;;;-145.39;45.70
37078;BME280;22989;55.998;37.212;2024-02-21T09:59:37;44398.75;;;-145.39;45.66
37078;BME280;22989;55.998;37.212;2024-02-21T10:02:03;44428.06;;;-145.39;45.72
37078;BME280;22989;55.998;37.212;2024-02-21T10:04:30;44437.81;;;-145.39;45.92
37078;BME280;22989;55.998;37.212;2024-02-21T10:06:56;44394.84;;;-145.39;45.97
37078;BME280;22989;55.998;37.212;2024-02-21T10:09:26;44379.22;;;-145.39;45.89
37078;BME280;22989;55.998;37.212;2024-02-21T10:11:56;44338.19;;;-145.39;45.69
37078;BME280;22989;55.998;37.212;2024-02-21T10:14:32;44336.25;;;-145.39;45.60
37078;BME280;22989;55.998;37.212;2024-02-21T10:16:58;44357.72;;;-145.39;45.75
37078;BME280;22989;55.998;37.212;2024-02-21T10:19:27;44357.72;;;-145.39;45.92
37078;BME280;22989;55.998;37.212;2024-02-21T10:22:07;44301.06;;;-145.39;46.10
37078;BME280;22989;55.998;37.212;2024-02-21T10:24:36;44252.25;;;-145.39;46.10
37078;BME280;22989;55.998;37.212;2024-02-21T10:27:08;44246.38;;;-145.39;45.95
37078;BME280;22989;55.998;37.212;2024-02-21T10:29:36;44267.88;;;-145.39;45.82
37078;BME280;22989;55.998;37.212;2024-02-21T10:32:11;44246.38;;;-145.39;45.71
37078;BME280;22989;55.998;37.212;2024-02-21T10:34:38;44269.81;;;-145.39;45.54
37078;BME280;22989;55.998;37.212;2024-02-21T10:37:08;44283.50;;;-145.39;45.88
37078;BME280;22989;55.998;37.212;2024-02-21T10:39:35;44211.22;;;-145.39;45.87
37078;BME280;22989;55.998;37.212;2024-02-21T10:42:02;44189.72;;;-145.39;45.92
37078;BME280;22989;55.998;37.212;2024-02-21T10:44:37;44228.78;;;-145.39;45.82
37078;BME280;22989;55.998;37.212;2024-02-21T10:47:10;44250.28;;;-145.39;45.96
37078;BME280;22989;55.998;37.212;2024-02-21T10:49:40;44252.25;;;-145.39;45.66
37078;BME280;22989;55.998;37.212;2024-02-21T10:54:56;44248.34;;;-145.39;45.94
37078;BME280;22989;55.998;37.212;2024-02-21T10:57:26;44228.78;;;-145.39;45.98
37078;BME280;22989;55.998;37.212;2024-02-21T10:59:55;44240.53;;;-145.39;45.99
37078;BME280;22989;55.998;37.212;2024-02-21T11:02:21;44236.59;;;-145.39;45.90
37078;BME280;22989;55.998;37.212;2024-02-21T11:04:48;44269.81;;;-145.39;45.88
37078;BME280;22989;55.998;37.212;2024-02-21T11:07:14;44222.94;;;-145.39;45.97
37078;BME280;22989;55.998;37.212;2024-02-21T11:09:50;44213.16;;;-145.39;45.91
37078;BME280;22989;55.998;37.212;2024-02-21T11:12:20;44220.97;;;-145.39;46.03
37078;BME280;22989;55.998;37.212;2024-02-21T11:14:47;44234.66;;;-145.39;46.09
37078;BME280;22989;55.998;37.212;2024-02-21T11:17:19;44236.59;;;-145.39;45.97
37078;BME280;22989;55.998;37.212;2024-02-21T11:19:52;44252.25;;;-145.39;46.10
37078;BME280;22989;55.998;37.212;2024-02-21T11:22:18;44179.97;;;-145.39;46.04
37078;BME280;22989;55.998;37.212;2024-02-21T11:24:45;44244.44;;;-145.39;46.05
37078;BME280;22989;55.998;37.212;2024-02-21T11:27:21;44160.44;;;-145.39;46.12
37078;BME280;22989;55.998;37.212;2024-02-21T11:29:55;44195.59;;;-145.39;46.28
37078;BME280;22989;55.998;37.212;2024-02-21T11:32:22;44181.91;;;-145.39;46.24
37078;BME280;22989;55.998;37.212;2024-02-21T11:37:27;44131.13;;;-145.39;46.37
37078;BME280;22989;55.998;37.212;2024-02-21T11:39:54;44174.09;;;-145.39;46.20
37078;BME280;22989;55.998;37.212;2024-02-21T11:42:20;44117.44;;;-145.39;46.24
37078;BME280;22989;55.998;37.212;2024-02-21T11:44:46;44158.47;;;-145.39;46.45
37078;BME280;22989;55.998;37.212;2024-02-21T11:47:11;44148.72;;;-145.39;46.49
37078;BME280;22989;55.998;37.212;2024-02-21T11:49:45;44090.09;;;-145.39;46.63
37078;BME280;22989;55.998;37.212;2024-02-21T11:52:11;44138.94;;;-145.39;46.67
37078;BME280;22989;55.998;37.212;2024-02-21T11:54:37;44109.63;;;-145.39;46.44
37078;BME280;22989;55.998;37.212;2024-02-21T11:57:02;44113.53;;;-145.39;46.56
37078;BME280;22989;55.998;37.212;2024-02-21T11:59:32;44074.47;;;-145.39;46.67
37078;BME280;22989;55.998;37.212;2024-02-21T12:02:01;44088.16;;;-145.39;46.61
37078;BME280;22989;55.998;37.212;2024-02-21T12:04:29;44074.47;;;-145.39;46.46
37078;BME280;22989;55.998;37.212;2024-02-21T12:06:59;44127.22;;;-145.39;46.56
37078;BME280;22989;55.998;37.212;2024-02-21T12:09:25;44158.47;;;-145.39;46.55
37078;BME280;22989;55.998;37.212;2024-02-21T12:12:02;44158.47;;;-145.39;46.77
37078;BME280;22989;55.998;37.212;2024-02-21T12:14:29;44129.19;;;-145.39;47.03
37078;BME280;22989;55.998;37.212;2024-02-21T12:16:59;44125.25;;;-145.39;47.13
37078;BME280;22989;55.998;37.212;2024-02-21T12:19:25;44101.81;;;-145.39;47.04
37078;BME280;22989;55.998;37.212;2024-02-21T12:21:51;44070.56;;;-145.39;47.27
37078;BME280;22989;55.998;37.212;2024-02-21T12:24:24;44056.91;;;-145.39;47.16
37078;BME280;22989;55.998;37.212;2024-02-21T12:26:53;44095.97;;;-145.39;47.07
37078;BME280;22989;55.998;37.212;2024-02-21T12:29:20;44070.56;;;-145.39;47.20
37078;BME280;22989;55.998;37.212;2024-02-21T12:31:46;44111.59;;;-145.39;47.28
37078;BME280;22989;55.998;37.212;2024-02-21T12:34:11;44090.09;;;-145.39;47.25